Time;durP1;ratioP1;P1;durP2;ratioP2;P2;SDS_P1;SDS_P2;PMS_P1;PMS_P2;Temp;Humidity;BMP_temperature;BMP_pressure;BME280_temperature;BME280_humidity;BME280_pressure;Samples;Min_cycle;Max_cycle;Signal;HPM_P1;HPM_P2
2022/01/14 02:43:25;;;;;;;23.57;13.05;;;;;;;3.13;100.00;99808.54;1818440;79;22981;-38
2022/01/14 02:45:55;;;;;;;20.37;11.93;;;;;;;3.10;100.00;99803.38;1791524;80;21081;-38
2022/01/14 02:48:25;;;;;;;22.13;12.88;;;;;;;3.14;100.00;99798.99;1792592;80;21066;-39
2022/01/14 02:51:08;;;;;;;22.77;12.45;;;;;;;3.08;100.00;99811.20;1793001;80;20994;-38
2022/01/14 02:56:10;;;;;;;22.35;12.88;;;;;;;3.11;100.00;99794.72;1793018;80;20951;-39
2022/01/14 02:58:38;;;;;;;22.82;12.80;;;;;;;3.07;100.00;99796.92;1793005;80;21022;-38
2022/01/14 03:01:12;;;;;;;22.45;13.22;;;;;;;2.99;100.00;99799.66;1793004;80;20975;-39
2022/01/14 03:03:43;;;;;;;22.93;13.20;;;;;;;3.00;100.00;99782.32;1793013;80;20959;-39
2022/01/14 03:06:08;;;;;;;27.73;13.75;;;;;;;2.94;100.00;99798.02;1792694;80;20971;-39
2022/01/14 03:08:34;;;;;;;20.17;13.18;;;;;;;2.87;100.00;99776.47;1792932;80;20959;-39
2022/01/14 03:11:09;;;;;;;23.05;13.80;;;;;;;2.96;100.00;99777.61;1793047;80;20955;-39
2022/01/14 03:13:36;;;;;;;22.15;14.38;;;;;;;2.98;100.00;99774.55;1793084;80;20959;-38
2022/01/14 03:16:02;;;;;;;22.98;14.68;;;;;;;3.01;100.00;99772.36;1793162;80;20990;-39
2022/01/14 03:18:44;;;;;;;24.63;13.28;;;;;;;3.00;100.00;99770.63;1792943;80;20991;-39
2022/01/14 03:21:12;;;;;;;24.77;14.58;;;;;;;3.02;100.00;99770.16;1791662;80;20983;-39
2022/01/14 03:23:45;;;;;;;23.60;13.32;;;;;;;3.00;100.00;99765.02;1792937;80;21034;-39
2022/01/14 03:26:11;;;;;;;26.23;14.30;;;;;;;3.00;100.00;99756.34;1792518;80;20979;-39
2022/01/14 03:28:37;;;;;;;26.45;14.25;;;;;;;3.04;100.00;99767.97;1793191;80;20987;-39
2022/01/14 03:31:03;;;;;;;22.35;13.60;;;;;;;3.02;100.00;99783.14;1792933;80;20990;-39
2022/01/14 03:33:28;;;;;;;23.10;13.18;;;;;;;2.97;100.00;99765.05;1793023;80;20986;-38
2022/01/14 03:35:54;;;;;;;22.75;13.58;;;;;;;3.01;100.00;99754.17;1792904;80;20963;-39
2022/01/14 03:38:20;;;;;;;24.98;15.32;;;;;;;3.06;100.00;99752.36;1793056;80;20990;-39
2022/01/14 03:40:46;;;;;;;31.33;15.45;;;;;;;2.96;100.00;99736.05;1793070;80;21436;-39
2022/01/14 03:43:12;;;;;;;24.50;14.63;;;;;;;2.98;100.00;99739.47;1788508;80;21580;-39
2022/01/14 03:45:42;;;;;;;29.32;14.90;;;;;;;2.96;100.00;99723.05;1787783;80;21038;-38
2022/01/14 03:48:07;;;;;;;29.23;16.05;;;;;;;3.06;100.00;99719.42;1786100;80;20987;-38
2022/01/14 03:50:35;;;;;;;28.30;15.78;;;;;;;3.03;100.00;99718.17;1787762;80;21038;-39
2022/01/14 03:53:01;;;;;;;30.70;14.80;;;;;;;3.05;100.00;99709.05;1787585;80;21038;-39
2022/01/14 03:55:27;;;;;;;32.28;14.87;;;;;;;3.07;100.00;99708.58;1787381;80;21042;-39
2022/01/14 03:57:53;;;;;;;26.55;16.00;;;;;;;3.04;100.00;99700.41;1787163;80;20991;-39
2022/01/14 04:00:19;;;;;;;28.77;15.68;;;;;;;3.11;100.00;99701.17;1787116;80;21030;-39
2022/01/14 04:02:46;;;;;;;32.95;15.88;;;;;;;3.07;100.00;99691.69;1787010;80;21011;-39
2022/01/14 04:05:13;;;;;;;28.50;15.80;;;;;;;3.02;100.00;99685.72;1787254;80;21007;-39
2022/01/14 04:07:39;;;;;;;29.90;15.88;;;;;;;3.03;100.00;99684.39;1787216;80;21002;-39
2022/01/14 04:10:10;;;;;;;33.58;16.67;;;;;;;3.08;100.00;99694.27;1787153;80;20995;-39
2022/01/14 04:13:22;;;;;;;37.30;17.12;;;;;;;3.08;100.00;99709.86;1786470;80;20987;-39
2022/01/14 04:17:27;;;;;;;33.38;16.40;;;;;;;3.13;100.00;99712.80;1787091;80;20963;-39
2022/01/14 04:19:53;;;;;;;28.67;16.40;;;;;;;3.10;100.00;99730.62;1787160;80;21039;-39
2022/01/14 04:22:19;;;;;;;28.50;16.40;;;;;;;3.13;100.00;99711.50;1787181;80;21526;-38
2022/01/14 04:24:44;;;;;;;30.43;16.25;;;;;;;3.15;100.00;99724.91;1787081;80;21489;-39
2022/01/14 04:27:10;;;;;;;30.68;16.48;;;;;;;3.10;99.86;99735.82;1787152;80;21512;-39
2022/01/14 04:29:36;;;;;;;28.38;16.23;;;;;;;3.13;99.94;99708.48;1787089;80;21022;-39
2022/01/14 04:32:02;;;;;;;31.10;16.67;;;;;;;3.18;99.76;99727.88;1787018;80;20999;-39
2022/01/14 04:34:27;;;;;;;31.57;16.42;;;;;;;3.13;99.51;99715.41;1787082;80;21002;-38
2022/01/14 04:36:53;;;;;;;33.20;17.15;;;;;;;3.14;99.55;99715.83;1787118;80;21582;-39
2022/01/14 04:39:19;;;;;;;33.42;17.52;;;;;;;3.18;99.44;99702.73;1787186;80;20994;-38
2022/01/14 04:41:45;;;;;;;28.47;16.15;;;;;;;3.22;99.37;99720.43;1786977;80;21003;-39
2022/01/14 04:44:11;;;;;;;29.87;16.77;;;;;;;3.13;99.25;99725.80;1787097;80;20971;-40
2022/01/14 04:49:08;;;;;;;30.77;17.07;;;;;;;3.14;99.31;99720.58;1787037;80;20936;-39
2022/01/14 04:51:34;;;;;;;33.10;17.52;;;;;;;3.16;99.32;99714.91;1787168;80;20990;-39
2022/01/14 04:54:00;;;;;;;27.70;15.60;;;;;;;3.16;99.33;99708.41;1756468;80;21028;-39
2022/01/14 04:56:25;;;;;;;32.00;15.50;;;;;;;3.16;99.41;99707.56;1787135;80;21603;-39
2022/01/14 04:58:52;;;;;;;31.27;16.02;;;;;;;3.04;99.49;99695.22;1787122;80;20990;-40
2022/01/14 05:01:18;;;;;;;27.07;15.53;;;;;;;3.10;99.78;99692.09;1787321;80;20959;-39
2022/01/14 05:03:44;;;;;;;21.07;13.98;;;;;;;3.11;99.73;99684.70;1787064;80;21037;-40
2022/01/14 05:06:09;;;;;;;26.12;15.43;;;;;;;3.08;99.84;99701.21;1786851;80;20963;-40
2022/01/14 05:08:38;;;;;;;32.95;17.40;;;;;;;3.09;99.85;99697.71;1785942;80;21014;-39
2022/01/14 05:11:21;;;;;;;;;;;;;;;3.12;99.84;99674.73;1788051;80;21039;-39
2022/01/14 05:13:31;;;;;;;29.87;17.85;;;;;;;3.06;99.98;99675.70;1782819;80;20404;-39
2022/01/14 05:15:58;;;;;;;28.77;16.55;;;;;;;3.08;100.00;99677.38;1786993;80;21014;-39
2022/01/14 05:18:24;;;;;;;25.37;14.73;;;;;;;3.10;100.00;99684.30;1787029;80;21418;-39
2022/01/14 05:20:51;;;;;;;30.00;15.03;;;;;;;3.12;99.99;99679.92;1787135;80;21491;-40
2022/01/14 05:23:17;;;;;;;25.30;14.13;;;;;;;3.13;100.00;99668.63;1787215;80;21018;-39
2022/01/14 05:25:43;;;;;;;24.47;14.47;;;;;;;3.00;100.00;99666.70;1787135;80;21378;-39
2022/01/14 05:28:09;;;;;;;25.25;14.23;;;;;;;3.00;100.00;99670.18;1787118;80;21464;-40
2022/01/14 05:30:35;;;;;;;26.52;14.43;;;;;;;2.96;100.00;99658.11;1787071;80;21026;-40
2022/01/14 05:33:01;;;;;;;23.00;14.68;;;;;;;2.99;100.00;99654.16;1787060;80;20987;-39
2022/01/14 05:35:28;;;;;;;30.60;18.32;;;;;;;3.03;100.00;99651.91;1787019;80;20963;-39
2022/01/14 05:37:54;;;;;;;;;;;;;;;3.07;100.00;99644.92;1789700;80;21495;-40
2022/01/14 05:40:23;;;;;;;23.18;13.50;;;;;;;3.03;100.00;99636.33;1787076;80;20148;-39
2022/01/14 05:42:49;;;;;;;26.65;15.95;;;;;;;3.06;100.00;99636.28;1783266;80;21524;-40
2022/01/14 05:45:16;;;;;;;28.55;13.88;;;;;;;3.03;100.00;99629.83;1778806;81;21038;-39
2022/01/14 05:47:43;;;;;;;22.40;13.25;;;;;;;3.08;100.00;99639.70;1778865;80;21042;-39
2022/01/14 05:50:13;;;;;;;28.77;14.93;;;;;;;3.08;100.00;99635.80;1778972;81;20968;-39
2022/01/14 05:52:40;;;;;;;31.30;14.55;;;;;;;3.11;100.00;99637.92;1778739;81;21533;-39
2022/01/14 05:55:07;;;;;;;23.30;15.15;;;;;;;3.14;100.00;99653.46;1778969;81;20998;-40
2022/01/14 05:57:34;;;;;;;23.00;12.60;;;;;;;3.11;100.00;99652.21;1778715;80;21035;-39
2022/01/14 06:00:03;;;;;;;23.18;13.25;;;;;;;3.16;100.00;99656.44;1779035;81;21792;-39
2022/01/14 06:02:29;;;;;;;23.22;12.33;;;;;;;3.20;100.00;99642.94;1778708;81;20991;-40
2022/01/14 06:04:55;;;;;;;26.82;13.18;;;;;;;3.19;100.00;99640.80;1778938;81;20991;-39
2022/01/14 06:07:21;;;;;;;22.52;12.50;;;;;;;3.21;100.00;99648.11;1778787;80;21560;-39
2022/01/14 06:09:46;;;;;;;27.32;14.13;;;;;;;3.19;100.00;99629.55;1778710;80;21453;-38
2022/01/14 06:12:12;;;;;;;19.55;12.18;;;;;;;3.22;100.00;99630.34;1778717;80;20995;-38
2022/01/14 06:14:38;;;;;;;19.00;12.05;;;;;;;3.16;100.00;99623.10;1778790;81;21038;-38
2022/01/14 06:17:05;;;;;;;20.82;12.85;;;;;;;3.22;100.00;99611.27;1778791;81;20972;-39
2022/01/14 06:19:30;;;;;;;23.92;13.18;;;;;;;3.29;100.00;99617.22;1778717;81;21022;-39
2022/01/14 06:21:57;;;;;;;22.58;12.50;;;;;;;3.21;100.00;99613.48;1778651;81;20968;-38
2022/01/14 06:24:23;;;;;;;20.92;12.78;;;;;;;3.23;100.00;99615.59;1778713;81;21034;-39
2022/01/14 06:26:49;;;;;;;23.83;12.43;;;;;;;3.21;100.00;99608.28;1778932;80;21007;-39
2022/01/14 06:29:15;;;;;;;21.87;12.35;;;;;;;3.21;100.00;99620.82;1778699;80;21034;-38
2022/01/14 06:31:41;;;;;;;20.82;12.75;;;;;;;3.21;100.00;99631.67;1778720;81;20988;-39
2022/01/14 06:34:07;;;;;;;21.62;11.50;;;;;;;3.15;100.00;99618.36;1778723;81;20960;-39
2022/01/14 06:36:33;;;;;;;18.50;11.88;;;;;;;3.13;100.00;99608.86;1778701;81;20996;-39
2022/01/14 06:38:59;;;;;;;20.25;12.65;;;;;;;3.10;100.00;99631.03;1779101;81;20986;-39
2022/01/14 06:41:25;;;;;;;20.68;12.43;;;;;;;3.14;100.00;99613.19;1778670;80;21910;-39
2022/01/14 06:43:50;;;;;;;21.12;12.93;;;;;;;3.14;100.00;99598.89;1784707;80;21175;-39
2022/01/14 06:46:17;;;;;;;18.60;12.15;;;;;;;3.12;100.00;99595.47;1787000;80;20991;-39
2022/01/14 06:48:42;;;;;;;19.45;11.60;;;;;;;3.07;100.00;99589.05;1786999;80;20967;-39
2022/01/14 06:51:14;;;;;;;18.20;12.23;;;;;;;3.05;100.00;99583.03;1786992;80;21499;-39
2022/01/14 06:53:36;;;;;;;;;;;;;;;3.08;100.00;99594.22;1788459;80;20978;-39
2022/01/14 06:56:01;;;;;;;18.25;11.35;;;;;;;3.10;100.00;99599.84;1787050;80;20128;-41
2022/01/14 06:58:27;;;;;;;21.37;12.15;;;;;;;3.08;100.00;99584.28;1786216;80;21026;-39
2022/01/14 07:00:53;;;;;;;16.17;10.98;;;;;;;3.03;100.00;99579.16;1785847;80;21027;-39
2022/01/14 07:03:19;;;;;;;18.10;10.78;;;;;;;3.10;100.00;99583.80;1786167;80;21026;-39
2022/01/14 07:05:45;;;;;;;21.07;12.70;;;;;;;3.13;100.00;99595.45;1786952;80;21488;-39
2022/01/14 07:08:10;;;;;;;23.50;13.28;;;;;;;2.98;100.00;99574.95;1786965;80;20990;-39
2022/01/14 07:10:37;;;;;;;18.32;11.68;;;;;;;3.04;100.00;99568.35;1786961;80;20983;-39
2022/01/14 07:13:04;;;;;;;20.12;10.78;;;;;;;3.09;100.00;99575.58;1786994;80;20998;-39
2022/01/14 07:15:30;;;;;;;19.15;11.60;;;;;;;3.07;100.00;99576.94;1787143;80;21002;-38
2022/01/14 07:17:56;;;;;;;22.77;12.63;;;;;;;3.06;100.00;99586.91;1787012;80;21459;-39
2022/01/14 07:20:22;;;;;;;15.85;10.80;;;;;;;3.06;100.00;99571.77;1787021;80;20971;-39
2022/01/14 07:22:48;;;;;;;17.77;11.75;;;;;;;3.12;100.00;99582.03;1786916;80;20987;-39
2022/01/14 07:25:14;;;;;;;18.87;10.88;;;;;;;3.11;100.00;99580.33;1787033;80;20979;-39
2022/01/14 07:27:40;;;;;;;20.85;13.05;;;;;;;3.14;100.00;99584.59;1786918;80;20986;-40
2022/01/14 07:30:08;;;;;;;17.83;11.07;;;;;;;3.09;100.00;99575.58;1787403;80;21444;-39
2022/01/14 07:32:34;;;;;;;;;;;;;;;3.18;100.00;99588.39;1789808;80;20987;-39
2022/01/14 07:35:02;;;;;;;17.10;11.45;;;;;;;3.17;100.00;99570.25;1786316;80;20159;-39
2022/01/14 07:37:29;;;;;;;19.50;11.43;;;;;;;3.16;100.00;99573.27;1787073;80;20995;-40
2022/01/14 07:39:54;;;;;;;24.30;12.35;;;;;;;3.15;100.00;99569.44;1787349;80;20995;-39
2022/01/14 07:42:20;;;;;;;19.00;12.73;;;;;;;3.13;100.00;99562.09;1787085;80;20987;-39
2022/01/14 07:44:46;;;;;;;22.32;12.18;;;;;;;3.18;100.00;99569.34;1787127;80;20999;-39
2022/01/14 07:47:12;;;;;;;18.98;12.58;;;;;;;3.17;100.00;99563.76;1787073;80;21031;-40
2022/01/14 07:49:38;;;;;;;23.00;13.00;;;;;;;3.18;100.00;99559.80;1787114;80;20986;-39
2022/01/14 07:52:04;;;;;;;25.12;12.40;;;;;;;3.18;100.00;99556.36;1787056;80;20983;-39
2022/01/14 07:54:30;;;;;;;17.97;12.20;;;;;;;3.19;100.00;99571.08;1787430;80;21502;-40
2022/01/14 07:57:00;;;;;;;19.65;12.05;;;;;;;3.19;100.00;99571.08;1787174;80;21861;-39
2022/01/14 07:59:31;;;;;;;20.82;12.88;;;;;;;3.22;100.00;99586.16;1787132;80;20995;-39
2022/01/14 08:01:58;;;;;;;20.27;12.07;;;;;;;3.23;100.00;99576.61;1786462;80;21030;-39
2022/01/14 08:04:26;;;;;;;17.85;11.15;;;;;;;3.22;100.00;99577.48;1787082;80;21508;-39
2022/01/14 08:06:57;;;;;;;21.80;12.78;;;;;;;3.25;100.00;99565.73;1787109;80;20970;-40
2022/01/14 08:09:22;;;;;;;19.57;12.18;;;;;;;3.29;100.00;99569.97;1786752;80;21022;-40
2022/01/14 08:11:49;;;;;;;23.00;15.05;;;;;;;3.32;100.00;99589.41;1786663;80;21011;-39
2022/01/14 08:14:15;;;;;;;23.38;14.30;;;;;;;3.21;100.00;99556.30;1787372;80;20987;-39
2022/01/14 08:16:41;;;;;;;22.10;14.35;;;;;;;3.24;100.00;99554.95;1786509;80;21006;-39
2022/01/14 08:19:08;;;;;;;24.27;14.43;;;;;;;3.22;100.00;99553.67;1785977;80;21065;-39
2022/01/14 08:21:34;;;;;;;20.02;13.35;;;;;;;3.20;100.00;99567.57;1786951;80;20984;-39
2022/01/14 08:24:00;;;;;;;21.37;13.78;;;;;;;3.23;100.00;99570.11;1786587;80;21045;-39
2022/01/14 08:26:26;;;;;;;17.62;12.10;;;;;;;3.23;100.00;99553.22;1786755;80;21010;-39
2022/01/14 08:28:52;;;;;;;22.20;14.10;;;;;;;3.20;100.00;99560.66;1787232;80;21515;-39
2022/01/14 08:31:18;;;;;;;19.27;12.37;;;;;;;3.21;100.00;99552.41;1787152;80;21488;-40
2022/01/14 08:33:46;;;;;;;20.27;12.80;;;;;;;3.28;100.00;99556.58;1786867;80;21025;-40
2022/01/14 08:36:14;;;;;;;19.17;11.43;;;;;;;3.27;100.00;99566.55;1787114;80;20990;-40
2022/01/14 08:38:40;;;;;;;22.20;12.93;;;;;;;3.31;100.00;99552.63;1786813;80;21014;-40
2022/01/14 08:41:06;;;;;;;20.72;12.50;;;;;;;3.31;100.00;99559.55;1786524;80;21476;-40
2022/01/14 08:43:32;;;;;;;22.35;13.43;;;;;;;3.34;100.00;99543.90;1785975;80;21101;-40
2022/01/14 08:46:01;;;;;;;21.12;13.45;;;;;;;3.37;100.00;99549.04;1786039;80;21046;-40
2022/01/14 08:48:26;;;;;;;;;;;;;;;3.36;100.00;99544.72;1788529;80;21515;-40
2022/01/14 08:50:52;;;;;;;21.93;12.85;;;;;;;3.29;100.00;99537.48;1785968;80;20132;-40
2022/01/14 08:53:19;;;;;;;19.40;11.85;;;;;;;3.30;100.00;99537.91;1786213;80;21117;-40
2022/01/14 08:55:46;;;;;;;19.35;11.97;;;;;;;3.28;100.00;99542.74;1785942;80;21172;-40
2022/01/14 08:58:11;;;;;;;22.65;12.20;;;;;;;3.28;100.00;99537.09;1785287;80;21026;-41
2022/01/14 09:00:38;;;;;;;22.15;12.68;;;;;;;3.31;100.00;99542.23;1786554;80;21468;-40
2022/01/14 09:03:05;;;;;;;16.05;10.70;;;;;;;3.29;100.00;99527.09;1786666;80;21010;-40
2022/01/14 09:05:32;;;;;;;22.87;13.03;;;;;;;3.30;100.00;99531.86;1786343;80;21507;-39
2022/01/14 09:07:59;;;;;;;20.43;12.18;;;;;;;3.25;100.00;99538.45;1786823;80;20998;-41
2022/01/14 09:10:25;;;;;;;20.05;12.13;;;;;;;3.28;100.00;99524.09;1786748;80;21034;-38
2022/01/14 09:12:51;;;;;;;17.55;10.78;;;;;;;3.31;100.00;99530.53;1786513;80;21002;-39
2022/01/14 09:15:17;;;;;;;18.17;12.13;;;;;;;3.30;100.00;99530.11;1786024;80;21446;-39
2022/01/14 09:17:43;;;;;;;16.25;10.88;;;;;;;3.33;100.00;99543.05;1786750;80;21503;-39
2022/01/14 09:20:12;;;;;;;18.30;11.33;;;;;;;3.34;100.00;99514.84;1786728;80;20971;-39
2022/01/14 09:22:38;;;;;;;16.77;11.22;;;;;;;3.30;100.00;99530.56;1786565;80;21428;-39
2022/01/14 09:25:07;;;;;;;16.35;10.72;;;;;;;3.25;100.00;99528.05;1786576;80;20987;-41
2022/01/14 09:27:33;;;;;;;15.78;10.48;;;;;;;3.24;100.00;99544.55;1755859;80;20990;-39
2022/01/14 09:30:04;;;;;;;17.65;10.58;;;;;;;3.29;100.00;99528.39;1786492;80;20969;-39
2022/01/14 09:32:31;;;;;;;16.23;11.12;;;;;;;3.27;100.00;99523.67;1786581;80;21550;-39
2022/01/14 09:34:57;;;;;;;15.65;11.22;;;;;;;3.29;100.00;99514.09;1787001;80;20963;-39
2022/01/14 09:37:23;;;;;;;18.25;12.15;;;;;;;3.29;100.00;99512.79;1786235;80;21003;-38
2022/01/14 09:39:49;;;;;;;21.95;11.40;;;;;;;3.32;100.00;99515.33;1786287;80;21072;-38
2022/01/14 09:42:15;;;;;;;17.75;11.03;;;;;;;3.31;100.00;99507.56;1786288;80;21054;-39
2022/01/14 09:44:43;;;;;;;17.67;11.48;;;;;;;3.30;100.00;99504.12;1771988;80;21504;-38
2022/01/14 09:47:09;;;;;;;17.32;11.93;;;;;;;3.29;100.00;99499.80;1767192;81;21027;-39
2022/01/14 09:49:37;;;;;;;16.00;11.15;;;;;;;3.34;100.00;99508.35;1767187;80;21004;-39
2022/01/14 09:52:04;;;;;;;17.25;11.20;;;;;;;3.34;100.00;99512.70;1767326;81;20999;-39
2022/01/14 09:54:32;;;;;;;17.85;11.80;;;;;;;3.35;100.00;99502.27;1767442;80;21030;-39
2022/01/14 09:56:57;;;;;;;18.07;11.18;;;;;;;3.36;100.00;99483.17;1766899;80;21473;-38
2022/01/14 09:59:24;;;;;;;16.97;11.70;;;;;;;3.29;100.00;99488.09;1766755;80;20953;-39
2022/01/14 10:01:49;;;;;;;20.60;12.98;;;;;;;3.35;100.00;99490.58;1767075;81;20976;-38
2022/01/14 10:04:21;;;;;;;27.48;15.93;;;;;;;3.31;100.00;99473.77;1767076;80;20968;-38
2022/01/14 10:06:56;;;;;;;22.85;15.15;;;;;;;3.32;100.00;99473.74;1766906;80;21008;-39
2022/01/14 10:09:40;;;;;;;20.65;13.65;;;;;;;3.37;100.00;99467.16;1766858;80;21016;-39
2022/01/14 10:12:20;;;;;;;24.57;13.83;;;;;;;3.33;100.00;99472.87;1766828;80;21040;-39
2022/01/14 10:14:56;;;;;;;25.35;14.18;;;;;;;3.36;100.00;99467.58;1768932;80;21542;-39
2022/01/14 10:17:25;;;;;;;23.38;14.25;;;;;;;3.32;100.00;99459.45;1771291;80;20942;-38
2022/01/14 10:19:52;;;;;;;22.67;13.83;;;;;;;3.37;100.00;99454.16;1777279;79;20972;-43
2022/01/14 10:22:25;;;;;;;21.17;13.85;;;;;;;3.37;100.00;99469.30;1776913;80;21034;-39
2022/01/14 10:25:05;;;;;;;20.82;13.35;;;;;;;3.37;100.00;99467.16;1775674;80;20972;-41
2022/01/14 10:27:37;;;;;;;22.67;14.38;;;;;;;3.33;100.00;99465.06;1778428;80;20962;-39
2022/01/14 10:30:27;;;;;;;21.87;14.33;;;;;;;3.40;100.00;99444.55;1779072;80;21047;-41
2022/01/14 10:33:07;;;;;;;21.42;13.05;;;;;;;3.45;100.00;99469.95;1777240;80;20966;-40
2022/01/14 10:35:43;;;;;;;21.02;13.48;;;;;;;3.40;100.00;99447.14;1779780;80;20982;-39
2022/01/14 10:38:12;;;;;;;25.75;14.68;;;;;;;3.44;100.00;99420.63;1779101;80;20977;-39
2022/01/14 10:40:45;;;;;;;25.52;15.18;;;;;;;3.48;100.00;99437.85;1781344;80;20992;-39
2022/01/14 10:43:15;;;;;;;27.37;15.70;;;;;;;3.51;100.00;99439.52;1778741;80;20968;-39
2022/01/14 10:45:43;;;;;;;28.27;15.88;;;;;;;3.54;100.00;99426.45;1778244;80;20997;-39
2022/01/14 10:48:16;;;;;;;27.75;14.87;;;;;;;3.54;100.00;99436.39;1780021;80;21041;-40
2022/01/14 10:50:55;;;;;;;31.68;17.27;;;;;;;3.56;100.00;99441.56;1776420;79;20931;-40
2022/01/14 10:53:38;;;;;;;27.50;16.60;;;;;;;3.64;100.00;99438.34;1776060;79;20975;-39
2022/01/14 10:56:08;;;;;;;24.87;15.30;;;;;;;3.64;100.00;99447.44;1776531;80;21496;-39
2022/01/14 10:58:44;;;;;;;21.23;13.28;;;;;;;3.64;100.00;99425.34;1776819;80;20971;-42
2022/01/14 11:01:15;;;;;;;23.65;15.10;;;;;;;3.65;100.00;99410.12;1778638;80;20984;-39
2022/01/14 11:03:46;;;;;;;22.85;14.10;;;;;;;3.71;100.00;99434.70;1776959;80;20998;-40
2022/01/14 11:06:40;;;;;;;23.18;13.35;;;;;;;3.67;100.00;99427.84;1775702;80;21006;-39
2022/01/14 11:09:13;;;;;;;20.62;13.45;;;;;;;3.65;100.00;99416.63;1777720;80;21051;-40
2022/01/14 11:11:42;;;;;;;20.48;12.78;;;;;;;3.67;100.00;99417.89;1775671;80;21002;-39
2022/01/14 11:14:08;;;;;;;24.47;13.58;;;;;;;3.69;100.00;99435.16;1777385;80;21042;-39
2022/01/14 11:16:36;;;;;;;17.02;10.98;;;;;;;3.70;100.00;99410.02;1776184;79;21018;-40
2022/01/14 11:19:06;;;;;;;16.87;10.98;;;;;;;3.71;100.00;99404.79;1777683;80;20959;-40
2022/01/14 11:24:32;;;;;;;14.45;10.68;;;;;;;3.74;100.00;99411.19;1777667;80;21536;-40
2022/01/14 11:27:08;;;;;;;26.87;15.05;;;;;;;3.74;100.00;99420.75;1776007;80;20994;-40
2022/01/14 11:29:44;;;;;;;16.57;10.77;;;;;;;3.73;100.00;99396.50;1779194;80;21054;-39
2022/01/14 11:32:11;;;;;;;20.02;11.75;;;;;;;3.71;100.00;99406.09;1775903;80;21546;-39
2022/01/14 11:34:43;;;;;;;16.67;10.08;;;;;;;3.67;100.00;99404.44;1778597;80;21019;-40
2022/01/14 11:37:17;;;;;;;16.45;9.95;;;;;;;3.71;100.00;99398.28;1779563;80;21025;-41
2022/01/14 11:39:59;;;;;;;19.07;11.25;;;;;;;3.71;100.00;99388.30;1779086;80;20971;-39
2022/01/14 11:42:51;;;;;;;12.45;8.83;;;;;;;3.70;100.00;99400.47;1776911;80;20974;-38
2022/01/14 11:45:46;;;;;;;13.95;8.95;;;;;;;3.72;100.00;99392.17;1781874;80;21031;-38
2022/01/14 11:48:33;;;;;;;13.43;8.03;;;;;;;3.69;100.00;99377.94;1785033;80;20963;-39
2022/01/14 11:51:09;;;;;;;12.07;7.78;;;;;;;3.71;100.00;99373.58;1781449;80;21353;-39
2022/01/14 11:53:51;;;;;;;14.87;8.03;;;;;;;3.75;100.00;99388.66;1785752;80;21084;-39
2022/01/14 11:56:38;;;;;;;12.05;8.18;;;;;;;3.79;100.00;99388.98;1784763;80;20971;-40
2022/01/14 11:59:28;;;;;;;12.45;8.10;;;;;;;3.74;100.00;99382.58;1786597;80;20982;-39
2022/01/14 12:01:56;;;;;;;11.75;7.50;;;;;;;3.66;100.00;99370.23;1783260;80;21036;-39
2022/01/14 12:04:23;;;;;;;12.82;8.05;;;;;;;3.69;100.00;99391.39;1785012;80;20994;-39
2022/01/14 12:06:59;;;;;;;13.93;8.57;;;;;;;3.61;100.00;99394.20;1786368;80;20971;-40
2022/01/14 12:09:32;;;;;;;11.78;8.00;;;;;;;3.66;100.00;99379.34;1783791;80;21496;-40
2022/01/14 12:12:31;;;;;;;10.35;7.20;;;;;;;3.64;100.00;99386.33;1784431;80;20958;-41
2022/01/14 12:14:58;;;;;;;11.18;7.20;;;;;;;3.67;100.00;99373.22;1783806;80;20981;-40
2022/01/14 12:17:40;;;;;;;11.48;7.53;;;;;;;3.69;100.00;99374.48;1784752;80;21429;-39
2022/01/14 12:20:15;;;;;;;12.40;8.40;;;;;;;3.65;100.00;99385.42;1786220;80;20951;-40
2022/01/14 12:23:02;;;;;;;11.28;7.28;;;;;;;3.65;100.00;99368.52;1784375;80;21018;-40
2022/01/14 12:25:44;;;;;;;9.33;6.87;;;;;;;3.66;100.00;99375.44;1785810;80;21022;-40
2022/01/14 12:28:23;;;;;;;11.70;8.00;;;;;;;3.62;100.00;99381.16;1786407;80;21002;-40
2022/01/14 12:31:01;;;;;;;13.08;7.78;;;;;;;3.63;100.00;99385.91;1783611;80;20962;-40
2022/01/14 12:33:48;;;;;;;13.30;8.75;;;;;;;3.67;100.00;99370.63;1785100;80;21002;-40
2022/01/14 12:36:17;;;;;;;;;;;;;;;3.64;100.00;99363.77;1787397;80;20935;-40
2022/01/14 12:38:44;;;;;;;10.50;7.45;;;;;;;3.58;100.00;99369.56;1783253;80;20429;-40
2022/01/14 12:41:18;;;;;;;13.15;7.60;;;;;;;3.59;100.00;99382.98;1784796;80;21445;-39
2022/01/14 12:43:58;;;;;;;11.60;7.80;;;;;;;3.60;100.00;99370.38;1784861;80;22476;-39
2022/01/14 12:46:52;;;;;;;9.05;6.53;;;;;;;3.62;100.00;99376.39;1784804;80;20990;-38
2022/01/14 12:49:10;;;;;;;11.05;7.40;;;;;;;3.62;100.00;99371.19;1779575;80;21042;-41
2022/01/14 12:51:38;;;;;;;9.93;7.17;;;;;;;3.60;100.00;99371.25;1784010;80;20975;-40
2022/01/14 12:54:07;;;;;;;13.38;7.50;;;;;;;3.67;100.00;99362.83;1784976;80;20948;-39
2022/01/14 12:56:36;;;;;;;14.53;7.83;;;;;;;3.64;100.00;99364.22;1785678;80;20990;-40
2022/01/14 12:59:15;;;;;;;12.55;7.62;;;;;;;3.65;100.00;99362.02;1785296;80;21453;-39
2022/01/14 13:01:50;;;;;;;15.13;8.83;;;;;;;3.60;100.00;99366.47;1785193;80;21560;-40
2022/01/14 13:04:19;;;;;;;12.47;8.68;;;;;;;3.64;100.00;99370.72;1787857;80;20997;-40
2022/01/14 13:06:52;;;;;;;15.23;9.08;;;;;;;3.59;100.00;99369.98;1782370;80;21025;-40
2022/01/14 13:09:30;;;;;;;21.07;10.08;;;;;;;3.66;100.00;99358.53;1786800;80;20935;-39
2022/01/14 13:12:03;;;;;;;18.12;10.80;;;;;;;3.71;100.00;99373.58;1784518;80;21013;-40
2022/01/14 13:14:39;;;;;;;11.55;7.40;;;;;;;3.75;100.00;99380.39;1785050;80;21062;-40
2022/01/14 13:17:16;;;;;;;9.98;7.22;;;;;;;3.76;100.00;99369.53;1780441;79;21026;-39
2022/01/14 13:19:45;;;;;;;11.70;7.97;;;;;;;3.71;100.00;99359.27;1785112;80;20934;-39
2022/01/14 13:22:15;;;;;;;8.90;6.05;;;;;;;3.73;100.00;99356.18;1783713;79;21471;-39
2022/01/14 13:24:46;;;;;;;10.00;6.62;;;;;;;3.70;100.00;99356.70;1783714;80;20966;-39
2022/01/14 13:27:22;;;;;;;12.40;7.62;;;;;;;3.76;100.00;99353.93;1786256;80;20962;-39
2022/01/14 13:29:58;;;;;;;10.60;6.97;;;;;;;3.80;100.00;99342.12;1785347;80;20944;-40
2022/01/14 13:32:31;;;;;;;10.88;6.95;;;;;;;3.82;100.00;99336.42;1785753;79;21018;-39
2022/01/14 13:35:14;;;;;;;11.12;6.97;;;;;;;3.85;100.00;99333.72;1784369;80;21554;-38
2022/01/14 13:37:43;;;;;;;15.48;8.08;;;;;;;3.90;100.00;99342.71;1785153;80;21522;-40
2022/01/14 13:40:20;;;;;;;11.15;7.87;;;;;;;3.89;100.00;99351.40;1785461;80;21037;-39
2022/01/14 13:43:08;;;;;;;12.30;7.67;;;;;;;3.95;100.00;99358.21;1781213;80;20957;-39
2022/01/14 13:45:40;;;;;;;14.95;9.30;;;;;;;3.95;100.00;99362.11;1785853;80;21299;-39
2022/01/14 13:48:23;;;;;;;17.60;10.82;;;;;;;4.00;100.00;99349.38;1781344;80;20942;-40
2022/01/14 13:50:56;;;;;;;12.30;7.05;;;;;;;3.96;100.00;99363.80;1784469;80;20995;-39
2022/01/14 13:53:29;;;;;;;14.70;8.33;;;;;;;3.93;100.00;99346.96;1785719;80;21028;-41
2022/01/14 13:56:06;;;;;;;12.47;8.18;;;;;;;4.03;100.00;99353.63;1785666;80;21043;-39
2022/01/14 13:58:32;;;;;;;12.00;7.20;;;;;;;3.99;100.00;99362.42;1785484;80;20974;-39
2022/01/14 14:01:05;;;;;;;19.70;10.18;;;;;;;4.00;100.00;99349.80;1785232;80;21053;-40
2022/01/14 14:03:41;;;;;;;25.17;13.22;;;;;;;3.99;100.00;99348.12;1785690;79;21005;-39
2022/01/14 14:06:16;;;;;;;55.95;31.90;;;;;;;4.02;100.00;99363.20;1782546;80;21130;-38
2022/01/14 14:08:52;;;;;;;73.75;40.52;;;;;;;4.03;100.00;99358.84;1785196;80;21062;-39
2022/01/14 14:17:10;;;;;;;33.13;15.80;;;;;;;4.17;100.00;99369.72;1786553;80;20931;-39
2022/01/14 14:19:52;;;;;;;20.62;10.32;;;;;;;4.10;100.00;99385.10;1785901;80;20982;-41
2022/01/14 14:22:41;;;;;;;15.03;8.70;;;;;;;4.16;100.00;99383.62;1784495;80;20989;-39
2022/01/14 14:25:22;;;;;;;13.78;8.03;;;;;;;4.26;100.00;99380.75;1784157;80;21076;-39
2022/01/14 14:27:58;;;;;;;13.45;8.30;;;;;;;4.24;100.00;99370.41;1786188;80;21009;-39
2022/01/14 14:30:29;;;;;;;17.62;9.23;;;;;;;4.20;100.00;99373.55;1786863;80;20987;-39
2022/01/14 14:32:55;;;;;;;12.70;7.90;;;;;;;4.30;100.00;99370.23;1785924;80;21002;-39